21 Aug 2018 01:50 UTC 2018233+01:50 UTC

Overview Datums Bench Marks Data Query Site Visit Daily QC Messages Attributes

043: Nueces Delta 3

27° 53' 1" N   97° 31' 59" W
NUDE3
The Coastal Bend Bays & Estuaries Program Coastal Bend Bays and Estuaries Program

Station Information

Nueces Delta 3
Nueces Delta 3
more pictures
 
Station Name:Nueces Delta 3
DNR ID:043
Location:27° 53' 1" N, 97° 31' 59" W

Water Level Forecasts

Latest Observations

Series Metric English Marine Observed at
Water Temperature 31.6 °C 88.9 °F 88.9 °F Aug 20 20:42 CDT
00h07m ago
Salinity 25.600 psu 25.600 psu 25.600 psu Aug 20 20:42 CDT
00h07m ago

Maps

Nueces Delta 3
All Stations in Area
Entire Network
 

Recent Observations

Date/Time Water
Temp (°F)
Sal (psu)
Aug 20 20:00 CDT 89.8 25.600
Aug 20 19:00 CDT 90.7 25.700
Aug 20 18:00 CDT 91.2 25.600
Aug 20 17:00 CDT 91.4 25.600
Aug 20 16:00 CDT 91.0 25.500
Aug 20 15:00 CDT 90.3 25.500
Aug 20 14:00 CDT 87.4 25.500
Aug 20 13:00 CDT 85.8 25.500
Aug 20 12:00 CDT 84.9 25.500
Aug 20 11:00 CDT 83.8 25.500
Aug 20 10:00 CDT 82.4 25.700
Aug 20 09:00 CDT 81.1 25.600
Aug 20 08:00 CDT 81.0 25.600
Aug 20 07:00 CDT 81.0 25.600
Aug 20 06:00 CDT 81.3 25.500
Aug 20 05:00 CDT 81.9 25.500
Aug 20 04:00 CDT 81.9 25.400
Aug 20 03:00 CDT 82.0 25.200
Aug 20 02:00 CDT 82.4 25.400
Aug 20 01:00 CDT 85.3 25.200
Aug 20 00:00 CDT 86.4 25.400
Aug 19 23:00 CDT 86.9 25.500
Aug 19 22:00 CDT 88.0 25.600
Aug 19 21:00 CDT 89.2 25.600
Aug 19 20:00 CDT 90.3 25.400

Historical Data Availability